Houtzdale, Pennsylvania
Current Conditions -  °F | °C
As of 6:54 AM on Thursday 27 Nov 2014 (Local Time) from KFIG Reporting Station
Overcast Overcast  
Wind Chill: 30°   Ceiling: 2100
Heat Index: 30°   Visibility: 10mi
Dew Point: 28°   Wind: 0mph
Humidity: 92%   Direction: NA
Pressure: 29.98"   Gusts: NA
Location:  40.82°N, 78.35°W
Report Text: KFIG 271154Z AUTO 00000KT 10SM SCT014 OVC021 M01/M02 A2998 RMK AO2 SLP167 70011 T10111022 11011 21017 53007
Loading
Personal Weather Stations






























Interactive Weather Map New forecast layout! Learn more

10-Day Weather Forecast

Advertisements
Track Severe Weather on mobile